Time;durP1;ratioP1;P1;durP2;ratioP2;P2;SDS_P1;SDS_P2;PMS_P1;PMS_P2;Temp;Humidity;BMP_temperature;BMP_pressure;BME280_temperature;BME280_humidity;BME280_pressure;Samples;Min_cycle;Max_cycle;Signal;HPM_P1;HPM_P2
2023/12/13 00:01:27;;;;;;;40.40;28.70;;;;;;;4.90;95.94;99180.98;103487;1252;108619;-63
2023/12/13 00:03:54;;;;;;;45.80;31.50;;;;;;;4.89;96.01;99172.37;102910;1252;1003343;-64
2023/12/13 00:06:22;;;;;;;45.40;31.40;;;;;;;4.90;95.90;99172.88;103436;1255;111134;-63
2023/12/13 00:08:49;;;;;;;48.30;32.90;;;;;;;4.88;95.99;99166.03;102595;1255;1002841;-64
2023/12/13 00:11:15;;;;;;;49.90;32.70;;;;;;;4.83;95.81;99165.79;103885;1252;97656;-64
2023/12/13 00:13:42;;;;;;;48.10;32.60;;;;;;;4.73;95.72;99163.14;103333;1252;138940;-64
2023/12/13 00:16:12;;;;;;;43.30;30.90;;;;;;;4.66;95.90;99166.92;102580;1252;1002931;-65
2023/12/13 00:18:39;;;;;;;43.90;30.90;;;;;;;4.61;95.99;99165.51;104533;1252;111507;-64
2023/12/13 00:21:07;;;;;;;43.10;30.30;;;;;;;4.55;96.23;99166.02;104687;1252;139065;-64
2023/12/13 00:23:34;;;;;;;43.90;29.80;;;;;;;4.52;96.33;99169.19;103589;1252;98915;-64
2023/12/13 00:26:02;;;;;;;41.50;29.00;;;;;;;4.51;96.72;99166.81;103354;1255;138614;-65
2023/12/13 00:28:29;;;;;;;43.40;31.40;;;;;;;4.52;96.72;99162.82;103477;1252;99406;-64
2023/12/13 00:30:56;;;;;;;42.90;29.60;;;;;;;4.50;96.55;99159.08;103418;1255;110698;-65
2023/12/13 00:33:23;;;;;;;44.30;32.30;;;;;;;4.46;96.64;99154.34;103327;1251;138140;-65
2023/12/13 00:35:50;;;;;;;46.40;32.30;;;;;;;4.46;96.81;99154.52;103520;1255;97771;-63
2023/12/13 00:38:17;;;;;;;42.50;31.60;;;;;;;4.43;97.04;99153.22;103379;1252;138062;-65
2023/12/13 00:40:45;;;;;;;41.60;30.00;;;;;;;4.41;96.95;99156.54;103893;1251;97798;-64
2023/12/13 00:43:12;;;;;;;43.50;30.50;;;;;;;4.39;97.07;99160.91;104433;1252;110580;-65
2023/12/13 00:45:38;;;;;;;43.90;30.60;;;;;;;4.38;97.08;99156.98;103298;1252;138600;-63
2023/12/13 00:48:06;;;;;;;41.90;29.10;;;;;;;4.34;97.33;99155.33;102678;1252;1016018;-64
2023/12/13 00:50:33;;;;;;;41.70;30.90;;;;;;;4.39;97.42;99162.45;103754;1251;139796;-63
2023/12/13 00:53:00;;;;;;;44.00;31.30;;;;;;;4.42;97.57;99159.45;103431;1252;97797;-63
2023/12/13 00:55:27;;;;;;;44.50;29.80;;;;;;;4.44;97.67;99164.56;103497;1250;110837;-63
2023/12/13 00:57:54;;;;;;;44.60;31.20;;;;;;;4.45;97.58;99161.77;103367;1252;138791;-63
2023/12/13 01:00:21;;;;;;;45.00;31.20;;;;;;;4.48;97.63;99161.88;103666;1252;97766;-64
2023/12/13 01:02:48;;;;;;;46.30;32.60;;;;;;;4.51;97.53;99159.04;103613;1251;138016;-63
2023/12/13 01:05:15;;;;;;;47.20;32.60;;;;;;;4.53;97.26;99158.83;103493;1251;97682;-65
2023/12/13 01:07:43;;;;;;;48.10;33.30;;;;;;;4.53;97.18;99160.20;103600;1252;138273;-64
2023/12/13 01:10:11;;;;;;;47.70;34.70;;;;;;;4.56;97.38;99157.36;103788;1252;108375;-64
2023/12/13 01:12:38;;;;;;;46.90;32.70;;;;;;;4.58;97.37;99154.58;104296;1252;96954;-63
2023/12/13 01:15:06;;;;;;;47.10;32.00;;;;;;;4.61;97.34;99153.79;103277;1255;138505;-63
2023/12/13 01:17:33;;;;;;;45.90;32.20;;;;;;;4.58;97.26;99143.70;103850;1252;98596;-64
2023/12/13 01:20:00;;;;;;;47.00;32.30;;;;;;;4.61;97.16;99146.91;103599;1255;138646;-64
2023/12/13 01:22:28;;;;;;;43.90;30.60;;;;;;;4.65;97.40;99145.25;103648;1252;107498;-63
2023/12/13 01:24:55;;;;;;;43.90;31.30;;;;;;;4.69;97.25;99142.94;103443;1255;97752;-64
2023/12/13 01:27:22;;;;;;;46.30;32.40;;;;;;;4.72;97.13;99135.61;103279;1252;1015864;-65
2023/12/13 01:29:49;;;;;;;45.90;32.50;;;;;;;4.75;97.21;99135.35;103844;1255;97892;-64
2023/12/13 01:32:15;;;;;;;46.90;32.90;;;;;;;4.78;96.99;99134.73;103498;1252;138255;-63
2023/12/13 01:34:42;;;;;;;45.60;31.40;;;;;;;4.80;97.00;99137.98;104227;1254;108980;-63
2023/12/13 01:37:09;;;;;;;43.60;29.80;;;;;;;4.80;96.88;99134.52;103588;1251;97688;-64
2023/12/13 01:39:36;;;;;;;39.60;28.10;;;;;;;4.82;96.82;99129.30;103354;1252;139187;-64
2023/12/13 01:42:03;;;;;;;40.60;28.80;;;;;;;4.86;96.69;99128.54;103633;1252;98205;-62
2023/12/13 01:44:30;;;;;;;41.60;29.80;;;;;;;4.88;96.62;99127.78;103956;1252;1015010;-63
2023/12/13 01:46:57;;;;;;;43.50;30.30;;;;;;;4.92;96.67;99124.06;103216;1254;1003016;-64
2023/12/13 01:49:24;;;;;;;43.30;30.90;;;;;;;4.94;96.53;99126.75;103916;1252;96522;-63
2023/12/13 01:51:52;;;;;;;43.90;30.60;;;;;;;4.95;96.30;99126.39;103657;1255;137607;-64
2023/12/13 01:54:19;;;;;;;41.70;29.10;;;;;;;4.94;96.41;99128.82;103585;1252;97751;-63
2023/12/13 01:56:48;;;;;;;42.10;29.70;;;;;;;4.95;96.37;99125.36;104703;1252;139434;-63
2023/12/13 01:59:15;;;;;;;45.50;29.90;;;;;;;4.95;96.25;99119.84;102831;1255;1002863;-65
2023/12/13 02:01:43;;;;;;;39.30;29.50;;;;;;;4.93;96.20;99124.55;104171;1252;139473;-64
2023/12/13 02:04:13;;;;;;;40.80;29.70;;;;;;;4.92;96.04;99125.95;103902;1252;107091;-65
2023/12/13 02:06:41;;;;;;;40.70;30.00;;;;;;;4.93;96.13;99115.77;103676;1252;97589;-65
2023/12/13 02:09:09;;;;;;;45.60;32.10;;;;;;;4.97;96.33;99111.33;103847;1252;138939;-63
2023/12/13 02:11:37;;;;;;;46.00;32.90;;;;;;;4.99;96.32;99107.66;103597;1252;107183;-64
2023/12/13 02:14:05;;;;;;;42.40;31.20;;;;;;;4.98;96.31;99101.66;102575;1255;1003456;-65
2023/12/13 02:16:32;;;;;;;45.40;30.90;;;;;;;4.95;96.23;99101.07;103066;1252;1003515;-64
2023/12/13 02:18:59;;;;;;;44.70;30.70;;;;;;;4.94;96.07;99102.83;103363;1252;96446;-64
2023/12/13 02:21:27;;;;;;;41.40;28.40;;;;;;;4.89;95.83;99099.34;103501;1253;139583;-63
2023/12/13 02:23:59;;;;;;;38.70;28.00;;;;;;;4.90;96.19;99098.80;103702;1252;107007;-63
2023/12/13 02:26:26;;;;;;;36.30;26.80;;;;;;;4.97;96.53;99093.95;103343;1252;138193;-66
2023/12/13 02:28:53;;;;;;;41.80;30.20;;;;;;;4.99;96.56;99086.80;103488;1252;107845;-64
2023/12/13 02:31:21;;;;;;;39.90;29.50;;;;;;;5.00;96.46;99086.61;103468;1252;98205;-64
2023/12/13 02:33:47;;;;;;;37.50;27.90;;;;;;;4.96;96.10;99080.02;103337;1252;137918;-64
2023/12/13 02:36:16;;;;;;;32.90;25.10;;;;;;;4.89;96.01;99080.23;103429;1252;107406;-64
2023/12/13 02:38:42;;;;;;;37.80;26.30;;;;;;;4.82;95.98;99085.89;103384;1251;138348;-63
2023/12/13 02:41:10;;;;;;;35.20;25.70;;;;;;;4.78;96.11;99083.77;103446;1255;108167;-63
2023/12/13 02:43:36;;;;;;;34.00;25.00;;;;;;;4.76;96.28;99082.98;103373;1253;139286;-64
2023/12/13 02:46:03;;;;;;;37.30;26.30;;;;;;;4.79;96.55;99084.10;103509;1255;110863;-64
2023/12/13 02:48:30;;;;;;;35.80;26.30;;;;;;;4.82;96.47;99082.45;104063;1252;107166;-63
2023/12/13 02:50:57;;;;;;;37.80;27.80;;;;;;;4.82;96.23;99076.79;103102;1252;1002196;-64
2023/12/13 02:53:24;;;;;;;35.70;26.10;;;;;;;4.84;96.49;99075.17;104288;1253;108038;-64
2023/12/13 02:55:51;;;;;;;36.10;25.90;;;;;;;4.87;96.43;99075.29;103301;1252;140471;-62
2023/12/13 02:58:19;;;;;;;34.80;26.30;;;;;;;4.88;95.96;99070.79;103772;1251;1002992;-64
2023/12/13 03:00:46;;;;;;;34.10;25.60;;;;;;;4.87;96.14;99070.83;104846;1255;107234;-63
2023/12/13 03:03:13;;;;;;;36.10;26.80;;;;;;;4.88;96.12;99065.63;103775;1252;137860;-63
2023/12/13 03:05:39;;;;;;;32.10;24.30;;;;;;;4.84;96.02;99059.85;103379;1252;1002537;-64
2023/12/13 03:08:07;;;;;;;31.70;23.20;;;;;;;4.81;95.93;99061.98;103623;1252;138835;-64
2023/12/13 03:10:34;;;;;;;32.40;24.50;;;;;;;4.79;96.05;99064.46;103935;1252;110218;-65
2023/12/13 03:13:01;;;;;;;29.80;22.90;;;;;;;4.76;95.84;99066.10;102785;1257;1003324;-65
2023/12/13 03:15:28;;;;;;;28.30;21.10;;;;;;;4.75;95.72;99061.30;103392;1251;139512;-65
2023/12/13 03:17:55;;;;;;;25.20;19.60;;;;;;;4.71;95.40;99053.33;103547;1253;108396;-63
2023/12/13 03:20:22;;;;;;;31.20;22.20;;;;;;;4.70;95.55;99056.29;102535;1251;1004606;-65
2023/12/13 03:22:48;;;;;;;25.50;20.40;;;;;;;4.72;95.72;99059.16;103717;1252;111080;-64
2023/12/13 03:25:16;;;;;;;29.30;22.70;;;;;;;4.70;95.46;99061.80;103552;1252;106657;-64
2023/12/13 03:27:44;;;;;;;29.00;20.60;;;;;;;4.65;95.31;99061.40;103561;1253;138533;-64
2023/12/13 03:30:12;;;;;;;29.60;21.50;;;;;;;4.60;95.50;99056.04;103718;1253;108173;-64
2023/12/13 03:32:40;;;;;;;24.70;19.50;;;;;;;4.57;95.34;99059.75;104308;1255;139201;-62
2023/12/13 03:35:08;;;;;;;28.60;19.70;;;;;;;4.55;95.79;99065.47;103410;1257;110908;-63
2023/12/13 03:37:35;;;;;;;28.50;20.40;;;;;;;4.53;95.78;99059.15;104585;1251;138915;-67
2023/12/13 03:40:03;;;;;;;29.00;21.10;;;;;;;4.57;95.73;99051.98;104521;1252;98098;-64
2023/12/13 03:42:31;;;;;;;30.90;21.40;;;;;;;4.60;96.24;99052.23;103528;1252;106904;-63
2023/12/13 03:44:57;;;;;;;28.70;21.90;;;;;;;4.65;96.07;99050.89;103453;1253;137957;-64
2023/12/13 03:47:24;;;;;;;29.70;22.40;;;;;;;4.66;95.97;99046.06;102748;1253;1002755;-63
2023/12/13 03:49:51;;;;;;;29.40;21.30;;;;;;;4.65;95.90;99047.27;103224;1252;1002577;-64
2023/12/13 03:52:18;;;;;;;30.20;21.60;;;;;;;4.65;96.00;99048.86;103906;1255;98332;-62
2023/12/13 03:54:46;;;;;;;31.30;22.30;;;;;;;4.66;96.18;99048.98;103426;1256;107469;-63
2023/12/13 03:57:12;;;;;;;28.90;20.40;;;;;;;4.67;96.13;99048.79;103009;1255;1003103;-65
2023/12/13 03:59:39;;;;;;;31.00;22.30;;;;;;;4.70;96.15;99047.52;103438;1255;112815;-63
2023/12/13 04:02:06;;;;;;;34.30;24.00;;;;;;;4.73;96.05;99052.25;103871;1252;140339;-64
2023/12/13 04:04:35;;;;;;;35.30;24.60;;;;;;;4.72;96.05;99048.65;103302;1253;1003564;-63
2023/12/13 04:07:05;;;;;;;35.80;26.30;;;;;;;4.72;95.74;99052.78;103460;1252;108290;-63
2023/12/13 04:09:32;;;;;;;36.50;24.80;;;;;;;4.67;95.91;99052.76;102555;1252;1003784;-64
2023/12/13 04:11:59;;;;;;;39.90;25.90;;;;;;;4.61;95.98;99048.62;104086;1252;110996;-64
2023/12/13 04:14:26;;;;;;;35.20;24.40;;;;;;;4.54;95.99;99048.11;102582;1251;1003518;-65
2023/12/13 04:16:52;;;;;;;40.50;26.30;;;;;;;4.50;96.10;99050.30;103551;1255;98296;-64
2023/12/13 04:19:19;;;;;;;39.20;24.80;;;;;;;4.50;96.40;99052.02;103466;1252;107305;-64
2023/12/13 04:21:46;;;;;;;38.00;25.50;;;;;;;4.52;96.76;99052.29;104442;1252;138391;-64
2023/12/13 04:24:13;;;;;;;39.30;26.30;;;;;;;4.54;96.73;99053.10;103377;1252;1003664;-63
2023/12/13 04:26:41;;;;;;;43.00;28.40;;;;;;;4.53;96.54;99055.20;103443;1252;1014839;-63
2023/12/13 04:29:07;;;;;;;45.50;28.20;;;;;;;4.51;96.72;99051.65;102806;1252;1003175;-63
2023/12/13 04:31:34;;;;;;;47.30;26.30;;;;;;;4.48;96.70;99052.90;103450;1253;1003205;-65
2023/12/13 04:34:01;;;;;;;40.60;25.10;;;;;;;4.43;96.72;99055.45;104093;1252;96316;-65
2023/12/13 04:36:28;;;;;;;39.90;25.70;;;;;;;4.40;96.93;99056.40;103980;1252;112249;-64
2023/12/13 04:38:55;;;;;;;38.60;24.50;;;;;;;4.39;97.16;99056.60;103373;1252;138552;-64
2023/12/13 04:41:22;;;;;;;43.00;25.20;;;;;;;4.38;97.34;99053.70;104064;1252;97889;-64
2023/12/13 04:43:49;;;;;;;40.90;24.00;;;;;;;4.39;97.53;99050.24;104209;1252;139779;-64
2023/12/13 04:46:16;;;;;;;44.10;25.10;;;;;;;4.42;97.76;99052.39;104254;1253;97778;-64
2023/12/13 04:48:42;;;;;;;44.20;26.30;;;;;;;4.45;98.00;99056.27;103253;1252;1016015;-63
2023/12/13 04:51:09;;;;;;;45.80;26.60;;;;;;;4.46;97.96;99057.10;103386;1252;138201;-63
2023/12/13 04:53:36;;;;;;;45.10;26.20;;;;;;;4.46;98.08;99055.86;104138;1255;96375;-64
2023/12/13 04:56:03;;;;;;;48.40;23.70;;;;;;;4.48;98.26;99052.56;103484;1255;138693;-62
2023/12/13 04:58:31;;;;;;;54.60;24.80;;;;;;;4.46;98.11;99048.83;103689;1255;97687;-63
2023/12/13 05:00:58;;;;;;;51.60;24.80;;;;;;;4.42;98.34;99045.15;104333;1252;111795;-63
2023/12/13 05:03:26;;;;;;;49.60;24.20;;;;;;;4.41;98.36;99046.91;102335;1255;1003419;-63
2023/12/13 05:05:53;;;;;;;42.60;23.50;;;;;;;4.41;98.68;99046.55;103428;1252;98296;-63
2023/12/13 05:08:20;;;;;;;47.00;24.20;;;;;;;4.44;98.63;99047.00;103273;1253;138909;-63
2023/12/13 05:10:47;;;;;;;54.10;25.60;;;;;;;4.47;98.70;99043.13;103614;1256;97692;-63
2023/12/13 05:13:14;;;;;;;52.20;25.60;;;;;;;4.48;98.91;99036.91;103903;1252;1002297;-64
2023/12/13 05:15:41;;;;;;;52.30;25.80;;;;;;;4.48;98.94;99039.14;104627;1252;138066;-64
2023/12/13 05:18:09;;;;;;;50.80;25.30;;;;;;;4.47;98.99;99040.72;104254;1252;152163;-64
2023/12/13 05:20:36;;;;;;;50.40;25.80;;;;;;;4.47;98.93;99038.81;103206;1252;139557;-64
2023/12/13 05:23:03;;;;;;;55.10;26.50;;;;;;;4.48;98.88;99037.26;102606;1252;1003021;-64
2023/12/13 05:25:30;;;;;;;47.20;25.00;;;;;;;4.46;99.10;99034.71;103221;1255;111820;-64
2023/12/13 05:27:56;;;;;;;52.50;27.30;;;;;;;4.43;98.88;99037.04;103659;1257;138477;-64
2023/12/13 05:30:23;;;;;;;51.10;26.60;;;;;;;4.42;98.93;99036.05;102779;1254;1002918;-64
2023/12/13 05:32:51;;;;;;;47.90;26.00;;;;;;;4.38;99.15;99034.42;103923;1252;139565;-64
2023/12/13 05:35:18;;;;;;;55.80;27.40;;;;;;;4.37;99.33;99032.58;103617;1254;1002562;-64
2023/12/13 05:37:45;;;;;;;62.60;28.70;;;;;;;4.36;99.62;99031.39;103267;1252;139543;-64
2023/12/13 05:40:15;;;;;;;56.60;29.50;;;;;;;4.38;99.64;99031.66;103393;1258;106804;-63
2023/12/13 05:42:42;;;;;;;55.40;29.40;;;;;;;4.42;99.74;99029.16;103552;1252;97854;-63
2023/12/13 05:45:10;;;;;;;61.40;33.50;;;;;;;4.46;99.82;99024.73;103338;1256;137740;-64
2023/12/13 05:47:37;;;;;;;58.20;30.30;;;;;;;4.50;99.90;99026.20;103705;1252;97787;-64
2023/12/13 05:50:05;;;;;;;64.20;29.90;;;;;;;4.52;99.86;99024.59;104079;1255;138720;-67
2023/12/13 05:52:33;;;;;;;60.70;30.50;;;;;;;4.53;99.72;99019.23;102611;1257;1003406;-64
2023/12/13 05:55:00;;;;;;;61.30;30.20;;;;;;;4.50;99.62;99018.61;103424;1253;97691;-65
2023/12/13 05:57:27;;;;;;;56.90;29.30;;;;;;;4.49;99.69;99015.90;102921;1252;1002840;-62
2023/12/13 05:59:54;;;;;;;54.70;28.30;;;;;;;4.51;99.56;99017.05;103362;1252;98099;-64
2023/12/13 06:02:21;;;;;;;57.80;29.20;;;;;;;4.53;99.83;99009.23;103725;1252;138374;-64
2023/12/13 06:04:47;;;;;;;58.60;28.60;;;;;;;4.56;99.84;99002.44;103518;1255;106922;-62
2023/12/13 06:07:15;;;;;;;57.50;28.60;;;;;;;4.62;99.83;99000.03;103473;1252;97774;-63
2023/12/13 06:09:44;;;;;;;55.70;28.30;;;;;;;4.65;99.82;99000.96;103345;1255;138508;-62
2023/12/13 06:12:13;;;;;;;56.50;28.70;;;;;;;4.67;99.67;99000.75;103523;1253;97813;-62
2023/12/13 06:14:40;;;;;;;53.20;28.60;;;;;;;4.68;99.48;98998.86;103328;1255;138482;-65
2023/12/13 06:17:07;;;;;;;56.70;29.10;;;;;;;4.69;99.55;98997.77;103396;1255;107168;-63
2023/12/13 06:19:34;;;;;;;56.90;28.30;;;;;;;4.72;99.25;98995.98;103393;1253;97816;-63
2023/12/13 06:22:01;;;;;;;55.10;28.20;;;;;;;4.73;99.13;98997.33;103394;1253;107757;-65
2023/12/13 06:24:27;;;;;;;57.50;29.90;;;;;;;4.73;98.92;98999.39;103336;1255;97798;-64
2023/12/13 06:26:54;;;;;;;60.00;30.40;;;;;;;4.73;99.03;98998.01;103354;1251;139973;-66
2023/12/13 06:29:21;;;;;;;57.10;28.20;;;;;;;4.69;98.87;98996.39;103307;1255;106313;-63
2023/12/13 06:31:48;;;;;;;55.30;29.20;;;;;;;4.66;98.70;98994.92;103357;1253;138739;-64
2023/12/13 06:34:15;;;;;;;52.90;28.60;;;;;;;4.62;98.80;98990.21;103384;1252;107575;-63
2023/12/13 06:36:42;;;;;;;53.00;27.80;;;;;;;4.58;99.08;98992.56;103775;1253;1003215;-63
2023/12/13 06:39:11;;;;;;;59.40;29.00;;;;;;;4.60;99.03;98992.70;103649;1254;138822;-63
2023/12/13 06:41:39;;;;;;;52.60;27.80;;;;;;;4.62;99.35;98995.23;103320;1253;107270;-64
2023/12/13 06:44:06;;;;;;;52.50;28.30;;;;;;;4.63;99.13;98995.52;103446;1253;144117;-64
2023/12/13 06:46:34;;;;;;;57.30;29.10;;;;;;;4.66;99.30;98993.54;103435;1253;107566;-64
2023/12/13 06:49:01;;;;;;;56.70;28.40;;;;;;;4.70;99.24;98997.77;102771;1252;1002821;-66
2023/12/13 06:51:27;;;;;;;56.40;29.40;;;;;;;4.70;99.14;98992.91;103286;1255;138381;-63
2023/12/13 06:53:54;;;;;;;51.60;28.70;;;;;;;4.68;99.04;98991.09;103559;1255;107247;-65
2023/12/13 06:56:25;;;;;;;61.00;31.10;;;;;;;4.65;98.93;98992.20;103034;1252;1002919;-63
2023/12/13 06:58:52;;;;;;;63.00;32.10;;;;;;;4.62;98.82;98984.71;103983;1255;1002523;-63
2023/12/13 07:01:20;;;;;;;60.20;30.60;;;;;;;4.59;99.01;98983.59;103871;1253;1002810;-63
2023/12/13 07:03:47;;;;;;;59.90;29.00;;;;;;;4.57;99.01;98985.02;104166;1253;138903;-63
2023/12/13 07:06:16;;;;;;;54.30;28.60;;;;;;;4.58;99.32;98986.20;104200;1252;109427;-63
2023/12/13 07:08:43;;;;;;;55.40;28.80;;;;;;;4.62;99.38;98984.19;103275;1252;138709;-64
2023/12/13 07:11:10;;;;;;;54.20;30.70;;;;;;;4.67;99.47;98981.63;103510;1253;110774;-63
2023/12/13 07:13:37;;;;;;;60.20;30.90;;;;;;;4.73;99.49;98984.39;103367;1255;97820;-63
2023/12/13 07:16:04;;;;;;;66.80;34.30;;;;;;;4.79;99.48;98984.91;103496;1255;111047;-63
2023/12/13 07:18:31;;;;;;;68.40;33.80;;;;;;;4.80;98.85;98988.65;102998;1256;1002959;-63
2023/12/13 07:20:58;;;;;;;66.00;32.70;;;;;;;4.77;98.65;98984.28;102690;1253;1003242;-64
2023/12/13 07:23:25;;;;;;;62.60;31.10;;;;;;;4.71;98.58;98980.48;104385;1255;107280;-63
2023/12/13 07:25:52;;;;;;;63.70;33.20;;;;;;;4.70;98.62;98981.23;103984;1255;138798;-64
2023/12/13 07:28:19;;;;;;;61.00;32.30;;;;;;;4.71;98.81;98979.48;102999;1256;1003837;-64
2023/12/13 07:30:46;;;;;;;67.70;33.90;;;;;;;4.71;98.63;98980.16;103406;1255;108390;-64
2023/12/13 07:33:31;;;;;;;66.30;32.70;;;;;;;4.71;98.53;98988.44;103436;1257;138670;-64
2023/12/13 07:35:58;;;;;;;66.20;32.60;;;;;;;4.72;98.59;98986.15;103476;1255;107172;-63
2023/12/13 07:38:25;;;;;;;69.20;35.70;;;;;;;4.75;98.83;98980.38;103323;1258;138600;-63
2023/12/13 07:40:52;;;;;;;69.40;34.90;;;;;;;4.77;98.76;98978.77;104065;1252;110717;-63
2023/12/13 07:43:19;;;;;;;71.50;35.80;;;;;;;4.76;98.71;98978.43;103747;1253;108651;-63
2023/12/13 07:45:51;;;;;;;71.90;35.00;;;;;;;4.75;98.65;98976.26;103383;1256;137948;-63
2023/12/13 07:48:18;;;;;;;62.00;33.10;;;;;;;4.73;98.56;98978.55;103481;1254;107515;-63
2023/12/13 07:50:55;;;;;;;61.60;33.20;;;;;;;4.71;98.48;98978.98;102452;1255;1002774;-63
2023/12/13 07:53:22;;;;;;;64.20;31.30;;;;;;;4.70;98.69;98974.85;103485;1256;111030;-64
2023/12/13 07:55:50;;;;;;;59.10;32.50;;;;;;;4.71;98.78;98979.48;103389;1254;139096;-63
2023/12/13 07:58:17;;;;;;;60.30;33.00;;;;;;;4.70;98.56;98979.48;103399;1255;98355;-63
2023/12/13 08:00:45;;;;;;;58.50;32.60;;;;;;;4.69;98.54;98976.78;103187;1254;1003101;-64
2023/12/13 08:03:12;;;;;;;52.40;30.40;;;;;;;4.64;98.43;98976.05;103657;1255;138834;-64
2023/12/13 08:05:39;;;;;;;56.20;30.80;;;;;;;4.56;97.85;98980.25;103309;1254;111145;-63
2023/12/13 08:08:06;;;;;;;55.20;31.60;;;;;;;4.46;97.94;98977.58;103294;1255;138862;-64
2023/12/13 08:10:33;;;;;;;54.90;30.90;;;;;;;4.37;98.31;98977.66;103402;1254;97814;-63
2023/12/13 08:13:00;;;;;;;60.00;32.10;;;;;;;4.31;98.22;98978.52;103392;1254;107375;-63
2023/12/13 08:15:27;;;;;;;59.20;32.20;;;;;;;4.28;98.65;98975.16;103316;1255;138700;-63
2023/12/13 08:17:53;;;;;;;58.80;31.70;;;;;;;4.27;98.93;98969.15;103435;1257;111994;-63
2023/12/13 08:20:21;;;;;;;55.90;31.60;;;;;;;4.28;99.15;98967.23;103391;1255;139073;-64
2023/12/13 08:22:49;;;;;;;58.30;32.00;;;;;;;4.26;99.16;98970.39;102743;1256;1016443;-63
2023/12/13 08:25:17;;;;;;;63.50;33.80;;;;;;;4.26;99.50;98970.55;104027;1256;106745;-63
2023/12/13 08:27:43;;;;;;;60.60;33.20;;;;;;;4.30;99.60;98970.45;103354;1256;138675;-64
2023/12/13 08:30:12;;;;;;;63.40;33.20;;;;;;;4.35;99.87;98968.28;103422;1257;112015;-62
2023/12/13 08:32:39;;;;;;;60.50;33.50;;;;;;;4.39;99.82;98970.05;103578;1254;140265;-63
2023/12/13 08:35:07;;;;;;;61.60;34.10;;;;;;;4.38;99.58;98962.33;103409;1255;97810;-63
2023/12/13 08:37:34;;;;;;;68.70;36.20;;;;;;;4.35;99.51;98957.77;103582;1254;108153;-62
2023/12/13 08:40:01;;;;;;;64.50;35.50;;;;;;;4.34;99.40;98954.02;103468;1256;138639;-63
2023/12/13 08:42:28;;;;;;;63.60;35.90;;;;;;;4.35;99.57;98957.08;103437;1252;110819;-62
2023/12/13 08:45:10;;;;;;;68.30;35.80;;;;;;;4.38;99.64;98958.38;103256;1255;140504;-63
2023/12/13 08:47:37;;;;;;;68.60;35.70;;;;;;;4.37;99.57;98965.10;103536;1255;98161;-64
2023/12/13 08:50:05;;;;;;;64.50;35.10;;;;;;;4.35;99.46;98966.89;103377;1258;139350;-64
2023/12/13 08:52:32;;;;;;;63.60;36.20;;;;;;;4.31;99.34;98965.95;103819;1256;96331;-62
2023/12/13 08:54:59;;;;;;;67.10;37.70;;;;;;;4.29;99.51;98962.55;103427;1254;109758;-64
2023/12/13 08:57:25;;;;;;;66.70;37.00;;;;;;;4.28;99.54;98964.48;103315;1256;138003;-62
2023/12/13 08:59:52;;;;;;;67.20;37.60;;;;;;;4.25;99.78;98968.85;102663;1254;1003349;-63
2023/12/13 09:02:31;;;;;;;65.50;36.80;;;;;;;4.20;99.71;98975.37;103732;1257;138396;-64
2023/12/13 09:05:00;;;;;;;70.10;37.70;;;;;;;4.14;99.74;98976.04;103592;1255;97891;-63
2023/12/13 09:07:27;;;;;;;70.20;37.60;;;;;;;4.12;99.75;98969.55;103493;1256;111429;-63
2023/12/13 09:09:54;;;;;;;73.30;38.40;;;;;;;4.14;99.93;98968.48;103311;1257;139264;-63
2023/12/13 09:12:21;;;;;;;70.10;37.60;;;;;;;4.21;100.00;98968.98;103475;1253;97786;-64
2023/12/13 09:14:48;;;;;;;64.00;36.10;;;;;;;4.29;100.00;98965.84;103298;1254;138563;-63
2023/12/13 09:17:15;;;;;;;68.70;38.10;;;;;;;4.38;100.00;98957.33;103308;1254;97816;-63
2023/12/13 09:19:43;;;;;;;65.50;36.40;;;;;;;4.44;99.96;98952.16;103405;1257;111028;-64
2023/12/13 09:22:10;;;;;;;70.30;39.50;;;;;;;4.45;99.87;98950.58;103511;1251;107223;-63
2023/12/13 09:24:37;;;;;;;71.60;40.70;;;;;;;4.48;99.91;98949.30;102666;1256;1003076;-63
2023/12/13 09:27:05;;;;;;;70.00;40.10;;;;;;;4.52;99.82;98951.10;103298;1257;138445;-63
2023/12/13 09:29:32;;;;;;;75.60;41.80;;;;;;;4.56;99.68;98946.17;102624;1257;1003704;-64
2023/12/13 09:32:00;;;;;;;76.70;41.40;;;;;;;4.56;99.59;98943.40;103301;1256;140038;-63
2023/12/13 09:34:27;;;;;;;72.50;40.80;;;;;;;4.57;99.47;98946.65;103355;1257;108230;-63
2023/12/13 09:36:55;;;;;;;74.70;42.20;;;;;;;4.55;99.24;98941.02;103944;1254;97867;-64
2023/12/13 09:39:22;;;;;;;75.20;40.10;;;;;;;4.54;99.39;98940.71;103297;1257;138562;-64
2023/12/13 09:42:00;;;;;;;74.90;41.60;;;;;;;4.56;99.55;98937.21;103455;1256;97790;-61
2023/12/13 09:44:31;;;;;;;71.20;40.40;;;;;;;4.60;99.72;98935.70;103311;1254;138483;-64
2023/12/13 09:47:02;;;;;;;80.00;42.10;;;;;;;4.64;99.76;98936.27;103476;1256;107633;-64
2023/12/13 09:49:31;;;;;;;75.00;43.10;;;;;;;4.67;99.45;98934.98;103436;1254;99523;-63
2023/12/13 09:52:08;;;;;;;79.20;43.90;;;;;;;4.67;99.30;98929.65;103352;1254;137454;-63
2023/12/13 09:54:35;;;;;;;85.80;45.40;;;;;;;4.67;99.28;98930.00;104725;1256;95964;-64
2023/12/13 09:57:04;;;;;;;79.00;43.20;;;;;;;4.64;98.89;98929.04;102682;1257;1003311;-63
2023/12/13 09:59:31;;;;;;;69.40;40.40;;;;;;;4.64;98.86;98932.15;103880;1251;107182;-62
2023/12/13 10:01:59;;;;;;;68.80;41.00;;;;;;;4.63;98.65;98929.76;103308;1256;138844;-64
2023/12/13 10:04:28;;;;;;;67.80;40.80;;;;;;;4.63;98.53;98928.72;103423;1255;1002380;-63
2023/12/13 10:06:56;;;;;;;66.90;42.00;;;;;;;4.68;98.53;98928.08;103449;1254;97844;-64
2023/12/13 10:09:26;;;;;;;67.90;42.20;;;;;;;4.67;97.73;98930.17;103358;1254;137672;-63
2023/12/13 10:11:53;;;;;;;70.30;44.20;;;;;;;4.67;97.95;98926.21;103412;1254;108332;-63
2023/12/13 10:14:20;;;;;;;72.90;41.80;;;;;;;4.66;97.91;98927.43;103431;1254;138751;-63
2023/12/13 10:16:48;;;;;;;71.70;43.10;;;;;;;4.66;97.81;98929.85;103484;1251;107331;-63
2023/12/13 10:19:30;;;;;;;73.30;42.70;;;;;;;4.68;97.93;98921.88;103472;1254;97817;-63
2023/12/13 10:21:57;;;;;;;74.00;43.10;;;;;;;4.69;97.76;98928.90;103280;1254;138251;-63
2023/12/13 10:24:25;;;;;;;71.00;43.10;;;;;;;4.72;97.58;98928.30;103439;1256;107970;-63
2023/12/13 10:26:52;;;;;;;74.70;44.40;;;;;;;4.73;97.51;98923.80;103552;1253;138460;-63
2023/12/13 10:29:20;;;;;;;75.80;45.80;;;;;;;4.72;97.41;98918.82;103370;1254;107536;-64
2023/12/13 10:31:48;;;;;;;72.00;44.20;;;;;;;4.73;97.78;98919.83;103331;1255;138028;-64
2023/12/13 10:34:15;;;;;;;70.70;41.80;;;;;;;4.73;97.30;98920.68;104769;1253;111409;-64
2023/12/13 10:36:42;;;;;;;65.80;40.90;;;;;;;4.74;97.25;98925.33;103714;1254;106197;-65
2023/12/13 10:39:11;;;;;;;64.60;39.90;;;;;;;4.71;96.42;98930.06;103923;1253;138896;-65
2023/12/13 10:41:39;;;;;;;62.90;41.50;;;;;;;4.61;95.61;98933.26;103436;1257;108648;-63
2023/12/13 10:44:08;;;;;;;70.80;44.60;;;;;;;4.47;95.44;98932.10;103330;1254;138102;-64
2023/12/13 10:46:37;;;;;;;70.30;44.20;;;;;;;4.38;95.59;98928.77;103469;1254;111975;-63
2023/12/13 10:49:04;;;;;;;71.80;44.30;;;;;;;4.28;95.72;98925.59;103526;1255;107967;-63
2023/12/13 10:51:34;;;;;;;73.20;45.60;;;;;;;4.19;96.09;98924.98;104563;1254;138478;-64
2023/12/13 10:54:02;;;;;;;71.80;45.10;;;;;;;4.16;96.26;98918.70;103418;1254;108788;-63
2023/12/13 10:56:28;;;;;;;69.70;43.90;;;;;;;4.14;96.44;98909.65;103287;1252;138470;-63
2023/12/13 10:58:56;;;;;;;71.00;44.20;;;;;;;4.12;96.75;98907.44;103462;1254;112387;-64
2023/12/13 11:01:24;;;;;;;75.60;44.80;;;;;;;4.13;97.06;98907.44;103401;1254;108699;-64
2023/12/13 11:03:58;;;;;;;71.30;44.60;;;;;;;4.15;97.20;98904.46;104494;1252;140314;-63
2023/12/13 11:06:27;;;;;;;76.40;46.60;;;;;;;4.21;97.44;98903.60;104444;1251;108653;-64
2023/12/13 11:08:54;;;;;;;77.10;47.90;;;;;;;4.26;97.21;98902.27;102496;1260;1003778;-63
2023/12/13 11:11:27;;;;;;;74.10;47.50;;;;;;;4.27;97.20;98900.52;103435;1255;111895;-63